Time;durP1;ratioP1;P1;durP2;ratioP2;P2;SDS_P1;SDS_P2;PMS_P1;PMS_P2;Temp;Humidity;BMP_temperature;BMP_pressure;BME280_temperature;BME280_humidity;BME280_pressure;Samples;Min_cycle;Max_cycle;Signal;HPM_P1;HPM_P2
2021/07/19 00:00:20;;;;;;;16.80;3.87;;;;;;;15.21;75.35;101168.81;5092419;28;20665;-71
2021/07/19 00:02:46;;;;;;;17.17;4.10;;;;;;;15.17;75.53;101168.16;5092495;28;20267;-71
2021/07/19 00:05:14;;;;;;;18.60;4.17;;;;;;;15.14;76.19;101159.44;5092670;28;20178;-72
2021/07/19 00:07:39;;;;;;;13.83;3.90;;;;;;;15.19;75.44;101160.88;5092482;28;20188;-71
2021/07/19 00:10:07;;;;;;;15.60;3.37;;;;;;;15.20;75.33;101157.22;5075413;28;20198;-71
2021/07/19 00:12:32;;;;;;;17.17;4.70;;;;;;;15.14;75.52;101152.25;5075501;28;20178;-71
2021/07/19 00:14:57;;;;;;;22.67;4.77;;;;;;;15.10;75.73;101153.41;5092483;28;20186;-71
2021/07/19 00:17:23;;;;;;;14.77;3.90;;;;;;;14.97;76.33;101158.75;5092345;28;20235;-72
2021/07/19 00:19:49;;;;;;;15.83;3.70;;;;;;;14.91;77.11;101144.88;5092291;28;20229;-72
2021/07/19 00:22:16;;;;;;;15.47;3.77;;;;;;;14.87;77.05;101151.41;5092706;28;20177;-72
2021/07/19 00:24:41;;;;;;;15.63;3.87;;;;;;;14.86;77.11;101146.97;5092417;28;20213;-72
2021/07/19 00:27:07;;;;;;;17.10;4.20;;;;;;;14.81;77.48;101149.09;5092405;28;20178;-72
2021/07/19 00:29:32;;;;;;;13.77;3.47;;;;;;;14.70;77.29;101149.81;5092317;28;20324;-72
2021/07/19 00:31:58;;;;;;;20.97;4.37;;;;;;;14.64;77.37;101156.44;5075164;28;20550;-72
2021/07/19 00:34:23;;;;;;;18.87;4.23;;;;;;;14.65;77.10;101160.84;5092134;28;20174;-71
2021/07/19 00:36:50;;;;;;;19.27;3.93;;;;;;;14.60;77.29;101162.97;5092412;28;20174;-70
2021/07/19 00:39:16;;;;;;;17.20;3.73;;;;;;;14.51;77.70;101165.41;5092107;28;20186;-71
2021/07/19 00:41:41;;;;;;;18.27;3.73;;;;;;;14.51;77.64;101168.94;5093640;28;20185;-71
2021/07/19 00:44:07;;;;;;;15.17;4.20;;;;;;;14.40;77.68;101168.72;5092219;28;20542;-71
2021/07/19 00:46:32;;;;;;;32.00;4.43;;;;;;;14.29;78.45;101166.72;5092115;28;20178;-71
2021/07/19 00:48:57;;;;;;;13.03;3.90;;;;;;;14.30;78.53;101181.00;5092091;28;20247;-71
2021/07/19 00:51:24;;;;;;;20.50;4.53;;;;;;;14.28;78.61;101181.09;5075175;28;20550;-71
2021/07/19 00:53:50;;;;;;;22.83;4.23;;;;;;;14.28;78.70;101180.25;5092041;28;20269;-70
2021/07/19 00:56:16;;;;;;;16.77;4.40;;;;;;;14.51;77.60;101176.16;5093468;28;20253;-71
2021/07/19 00:58:42;;;;;;;16.43;4.33;;;;;;;14.66;76.72;101167.94;5091600;28;20186;-71
2021/07/19 01:01:08;;;;;;;14.13;4.00;;;;;;;14.66;76.73;101176.00;5092111;28;20643;-72
2021/07/19 01:03:33;;;;;;;15.97;4.30;;;;;;;14.73;76.35;101173.78;5091646;28;20186;-71
2021/07/19 01:06:01;;;;;;;18.23;3.80;;;;;;;14.72;76.00;101163.13;5091983;28;20178;-71
2021/07/19 01:08:26;;;;;;;17.63;4.27;;;;;;;14.67;76.22;101179.56;5074986;28;20170;-71
2021/07/19 01:10:51;;;;;;;13.67;3.80;;;;;;;14.56;76.83;101171.34;5091732;28;20198;-71
2021/07/19 01:13:17;;;;;;;16.47;4.07;;;;;;;14.39;77.67;101173.22;5091663;28;20174;-71
2021/07/19 01:15:43;;;;;;;20.60;4.00;;;;;;;14.46;77.48;101178.22;5091862;28;20182;-72
2021/07/19 01:18:08;;;;;;;15.63;4.23;;;;;;;14.46;77.52;101173.72;5091725;28;20170;-71
2021/07/19 01:20:54;;;;;;;13.37;3.60;;;;;;;14.55;77.11;101177.66;5091688;28;20186;-71
2021/07/19 01:23:32;;;;;;;15.50;3.80;;;;;;;14.56;76.86;101169.50;5091808;28;20653;-71
2021/07/19 01:26:32;;;;;;;16.77;4.53;;;;;;;14.49;77.47;101164.59;5074820;28;20211;-71
2021/07/19 01:28:58;;;;;;;21.00;4.30;;;;;;;14.48;77.25;101169.13;5093838;28;20277;-71
2021/07/19 01:31:26;;;;;;;12.90;4.17;;;;;;;14.49;77.61;101169.97;5095548;28;20705;-71
2021/07/19 01:33:57;;;;;;;15.10;3.77;;;;;;;14.55;77.29;101173.16;5096438;28;20703;-71
2021/07/19 01:36:26;;;;;;;16.77;4.47;;;;;;;14.51;77.18;101158.22;5078569;28;20288;-71
2021/07/19 01:38:52;;;;;;;12.57;3.83;;;;;;;14.41;77.83;101165.06;5095337;28;20204;-71
2021/07/19 01:41:19;;;;;;;16.80;4.50;;;;;;;14.41;77.72;101167.75;5095275;28;20166;-71
2021/07/19 01:43:46;;;;;;;17.83;4.70;;;;;;;14.31;78.57;101161.25;5095224;28;20178;-71
2021/07/19 01:46:12;;;;;;;14.73;4.20;;;;;;;14.31;78.63;101159.44;5078433;28;20189;-71
2021/07/19 01:48:38;;;;;;;18.33;4.37;;;;;;;14.23;78.90;101155.50;5094833;28;20300;-71
2021/07/19 01:51:03;;;;;;;22.13;4.93;;;;;;;14.21;78.71;101165.47;5095018;28;20273;-71
2021/07/19 01:53:32;;;;;;;18.50;4.33;;;;;;;14.18;79.34;101171.03;5094857;28;20179;-71
2021/07/19 01:55:58;;;;;;;14.90;4.17;;;;;;;14.13;79.22;101162.44;5094873;28;20252;-71
2021/07/19 01:58:24;;;;;;;13.50;3.90;;;;;;;14.05;80.06;101168.25;5094744;28;20182;-71
2021/07/19 02:00:50;;;;;;;13.40;4.07;;;;;;;13.95;80.35;101162.59;5077672;28;20202;-71
2021/07/19 02:03:15;;;;;;;15.43;3.83;;;;;;;13.97;79.87;101163.34;5095011;28;20170;-71
2021/07/19 02:05:41;;;;;;;18.37;4.70;;;;;;;14.03;80.15;101168.34;5094646;28;20231;-71
2021/07/19 02:08:07;;;;;;;12.97;4.00;;;;;;;14.07;79.94;101169.88;5094534;28;20209;-71
2021/07/19 02:10:33;;;;;;;16.23;4.53;;;;;;;14.04;79.73;101153.97;5094282;28;20212;-71
2021/07/19 02:12:59;;;;;;;18.97;4.03;;;;;;;13.99;80.72;101164.13;5094731;28;20178;-71
2021/07/19 02:15:25;;;;;;;11.97;3.63;;;;;;;14.04;80.07;101164.69;5094453;28;20200;-71
2021/07/19 02:17:57;;;;;;;13.80;4.20;;;;;;;14.06;79.58;101156.53;5094470;28;20175;-71
2021/07/19 02:20:25;;;;;;;17.90;3.60;;;;;;;14.06;79.75;101156.53;5094288;28;20271;-71
2021/07/19 02:22:51;;;;;;;17.77;4.53;;;;;;;14.06;79.72;101162.78;5077443;28;20175;-71
2021/07/19 02:25:16;;;;;;;19.30;4.17;;;;;;;14.05;79.51;101168.25;5094758;28;20181;-71
2021/07/19 02:27:45;;;;;;;20.37;4.27;;;;;;;14.03;79.56;101170.16;5094248;28;20638;-71
2021/07/19 02:30:13;;;;;;;14.13;3.87;;;;;;;14.05;79.59;101161.06;5093933;28;20190;-71
2021/07/19 02:32:44;;;;;;;15.97;3.93;;;;;;;14.00;79.31;101167.66;5077126;28;20646;-71
2021/07/19 02:35:11;;;;;;;16.63;4.37;;;;;;;13.93;79.45;101166.31;5093959;28;20523;-71
2021/07/19 02:37:44;;;;;;;14.77;3.60;;;;;;;13.90;79.49;101169.19;5093936;28;20174;-71
2021/07/19 02:40:11;;;;;;;16.60;3.50;;;;;;;13.84;79.95;101167.75;5093638;28;20186;-71
2021/07/19 02:42:41;;;;;;;18.60;4.33;;;;;;;13.81;79.73;101172.44;5076897;28;20170;-71
2021/07/19 02:45:07;;;;;;;11.67;3.60;;;;;;;13.74;80.06;101172.78;5076960;28;20244;-71
2021/07/19 02:47:33;;;;;;;10.00;3.30;;;;;;;13.71;79.86;101173.00;5095265;28;20170;-71
2021/07/19 02:49:59;;;;;;;16.37;4.57;;;;;;;13.69;80.13;101182.09;5094860;28;20194;-71
2021/07/19 02:52:24;;;;;;;11.53;4.57;;;;;;;13.63;80.16;101186.00;5094098;28;20240;-71
2021/07/19 02:54:50;;;;;;;16.60;4.53;;;;;;;13.55;80.46;101185.59;5076570;28;20174;-71
2021/07/19 02:57:16;;;;;;;13.77;3.93;;;;;;;13.57;80.54;101177.47;5076564;28;20239;-70
2021/07/19 02:59:41;;;;;;;14.80;3.93;;;;;;;13.44;80.95;101175.53;5076498;28;20202;-71
2021/07/19 03:02:09;;;;;;;16.93;4.60;;;;;;;13.42;80.73;101172.06;5093849;28;20503;-71
2021/07/19 03:04:36;;;;;;;11.93;4.20;;;;;;;13.43;81.22;101176.47;5093527;28;20339;-71
2021/07/19 03:07:04;;;;;;;15.30;4.30;;;;;;;13.37;81.08;101178.63;5093696;28;20177;-71
2021/07/19 03:09:32;;;;;;;15.87;3.90;;;;;;;13.35;81.11;101181.41;5076274;28;20194;-71
2021/07/19 03:11:58;;;;;;;13.57;4.10;;;;;;;13.30;81.74;101180.81;5076323;28;20178;-71
2021/07/19 03:14:24;;;;;;;15.30;4.57;;;;;;;13.36;81.55;101183.13;5076314;28;20197;-71
2021/07/19 03:16:51;;;;;;;11.13;3.87;;;;;;;13.40;81.61;101184.72;5093284;28;20178;-71
2021/07/19 03:19:17;;;;;;;12.63;4.47;;;;;;;13.37;81.52;101178.63;5076144;28;20682;-70
2021/07/19 03:21:43;;;;;;;17.40;4.50;;;;;;;13.36;81.62;101179.59;5076130;28;20177;-70
2021/07/19 03:24:10;;;;;;;14.60;4.40;;;;;;;13.37;81.82;101189.34;5093033;28;20333;-70
2021/07/19 03:26:40;;;;;;;14.13;4.43;;;;;;;13.38;81.46;101180.34;5076118;28;20222;-70
2021/07/19 03:29:06;;;;;;;13.87;4.50;;;;;;;13.38;81.50;101189.31;5093039;28;20547;-70
2021/07/19 03:31:33;;;;;;;14.30;4.10;;;;;;;13.37;82.12;101192.91;5093359;28;20515;-70
2021/07/19 03:33:59;;;;;;;11.90;4.13;;;;;;;13.40;81.79;101187.38;5075972;28;20238;-70
2021/07/19 03:36:25;;;;;;;16.17;4.30;;;;;;;13.35;82.31;101193.94;5092785;28;20250;-70
2021/07/19 03:38:51;;;;;;;14.33;4.40;;;;;;;13.36;82.31;101191.19;5092773;28;20174;-71
2021/07/19 03:41:16;;;;;;;14.87;4.73;;;;;;;13.41;81.69;101197.16;5092857;28;20166;-71
2021/07/19 03:43:43;;;;;;;16.47;4.53;;;;;;;13.47;81.17;101200.44;5092920;28;20173;-70
2021/07/19 03:46:09;;;;;;;16.13;4.63;;;;;;;13.36;82.11;101201.91;5092811;28;20170;-71
2021/07/19 03:48:35;;;;;;;12.47;4.57;;;;;;;13.32;82.29;101199.50;5094186;28;20174;-71
2021/07/19 03:51:00;;;;;;;12.83;4.80;;;;;;;13.21;83.54;101193.91;5093951;28;20232;-71
2021/07/19 03:53:26;;;;;;;13.13;4.47;;;;;;;13.21;83.51;101192.09;5094611;28;20175;-71
2021/07/19 03:55:52;;;;;;;14.70;4.80;;;;;;;13.22;83.59;101196.50;5094027;28;20173;-71
2021/07/19 03:58:18;;;;;;;12.73;4.40;;;;;;;13.18;83.77;101200.31;5092457;28;20186;-71
2021/07/19 04:00:43;;;;;;;15.80;5.33;;;;;;;13.20;83.66;101200.22;5102937;22;20230;-68
2021/07/19 04:03:17;;;;;;;10.83;4.73;;;;;;;13.37;82.59;101208.13;5072027;28;20551;-68
2021/07/19 04:05:49;;;;;;;14.93;6.20;;;;;;;13.39;82.53;101204.44;5088424;28;20159;-68
2021/07/19 04:08:15;;;;;;;13.47;5.23;;;;;;;13.54;82.07;101207.16;5088857;28;20201;-68
2021/07/19 04:10:40;;;;;;;12.17;4.47;;;;;;;13.74;80.69;101215.72;5055494;28;20251;-69
2021/07/19 04:13:07;;;;;;;13.00;4.83;;;;;;;13.90;79.68;101210.31;5089141;28;20175;-69
2021/07/19 04:15:34;;;;;;;11.60;5.10;;;;;;;14.13;78.75;101221.47;5055630;28;20631;-69
2021/07/19 04:18:00;;;;;;;12.07;5.03;;;;;;;14.17;78.86;101217.63;5072134;28;20179;-69
2021/07/19 04:20:25;;;;;;;13.50;5.20;;;;;;;14.27;77.89;101219.66;5073437;28;20187;-69
2021/07/19 04:22:53;;;;;;;13.50;5.47;;;;;;;14.20;78.30;101214.75;5073406;28;20210;-71
2021/07/19 04:25:18;;;;;;;13.67;5.10;;;;;;;14.30;78.05;101216.78;5072588;28;20179;-69
2021/07/19 04:27:44;;;;;;;16.53;5.17;;;;;;;14.39;77.62;101221.56;5075890;28;20189;-70
2021/07/19 04:30:10;;;;;;;15.00;5.20;;;;;;;14.46;77.39;101208.63;5073613;28;20686;-69
2021/07/19 04:32:44;;;;;;;10.53;4.67;;;;;;;14.51;76.91;101219.97;5088647;28;20293;-69
2021/07/19 04:35:51;;;;;;;18.40;6.07;;;;;;;14.40;77.39;101222.41;5072648;28;20586;-69
2021/07/19 04:38:19;;;;;;;13.43;5.23;;;;;;;14.47;77.60;101223.78;5031893;28;20190;-70
2021/07/19 04:41:02;;;;;;;11.53;5.23;;;;;;;14.48;77.46;101222.84;5071654;28;20195;-69
2021/07/19 04:43:28;;;;;;;14.43;5.57;;;;;;;14.38;77.81;101224.34;5088232;28;20159;-69
2021/07/19 04:45:53;;;;;;;14.20;5.93;;;;;;;14.51;77.18;101225.34;5072754;28;20177;-69
2021/07/19 04:48:19;;;;;;;14.80;5.30;;;;;;;14.62;77.36;101220.16;5073620;28;20647;-69
2021/07/19 04:50:45;;;;;;;12.23;5.27;;;;;;;14.55;77.08;101217.97;5072980;28;20206;-70
2021/07/19 04:53:11;;;;;;;12.53;5.20;;;;;;;14.50;77.35;101226.31;5072711;28;20171;-69
2021/07/19 04:55:38;;;;;;;12.27;5.53;;;;;;;14.50;77.50;101222.75;5072698;28;20175;-69
2021/07/19 04:58:04;;;;;;;14.50;6.07;;;;;;;14.68;76.79;101224.28;5071709;28;20249;-69
2021/07/19 05:00:31;;;;;;;15.93;5.20;;;;;;;14.72;76.62;101222.25;5088064;28;20199;-69
2021/07/19 05:02:57;;;;;;;12.77;5.77;;;;;;;14.79;76.17;101220.88;5073975;28;20186;-69
2021/07/19 05:05:24;;;;;;;14.07;5.93;;;;;;;14.81;76.10;101217.13;5076033;28;20198;-69
2021/07/19 05:07:50;;;;;;;13.97;5.70;;;;;;;14.85;75.95;101212.41;5075634;28;20183;-69
2021/07/19 05:10:17;;;;;;;12.67;5.73;;;;;;;15.03;75.28;101216.63;5075330;28;20666;-69
2021/07/19 05:12:49;;;;;;;14.80;6.70;;;;;;;15.08;74.79;101210.94;5076156;28;20224;-70
2021/07/19 05:15:15;;;;;;;16.50;5.87;;;;;;;15.14;74.77;101219.47;5076060;28;20209;-70
2021/07/19 05:17:41;;;;;;;13.60;5.60;;;;;;;15.12;75.69;101217.84;5077415;28;20183;-69
2021/07/19 05:20:34;;;;;;;13.23;6.30;;;;;;;15.20;74.95;101221.75;5077179;28;20277;-69
2021/07/19 05:22:59;;;;;;;17.20;5.60;;;;;;;15.28;74.64;101230.19;5076827;28;20251;-69
2021/07/19 05:25:30;;;;;;;13.13;5.67;;;;;;;15.37;74.34;101231.41;5077401;28;20175;-69
2021/07/19 05:27:58;;;;;;;12.97;5.50;;;;;;;15.44;73.58;101234.53;5078545;28;20576;-69
2021/07/19 05:30:27;;;;;;;11.80;5.30;;;;;;;15.45;73.86;101226.34;5077339;28;20226;-69
2021/07/19 05:32:52;;;;;;;11.00;6.07;;;;;;;15.46;73.97;101227.22;5058984;28;20201;-68
2021/07/19 05:35:20;;;;;;;10.80;5.80;;;;;;;15.44;73.30;101229.16;5075603;28;20182;-70
2021/07/19 05:37:46;;;;;;;15.47;5.90;;;;;;;15.47;73.14;101229.81;5076372;28;20182;-69
2021/07/19 05:40:12;;;;;;;11.73;6.27;;;;;;;15.56;72.98;101231.88;5076913;28;20187;-69
2021/07/19 05:42:39;;;;;;;10.97;5.60;;;;;;;15.60;72.65;101235.25;5075709;28;20587;-69
2021/07/19 05:45:05;;;;;;;9.87;5.90;;;;;;;15.57;72.34;101233.59;5075173;28;20221;-69
2021/07/19 05:47:31;;;;;;;12.00;5.90;;;;;;;15.56;72.16;101239.94;5077746;28;20214;-69
2021/07/19 05:49:56;;;;;;;11.87;6.00;;;;;;;15.75;72.32;101234.22;5080580;28;20202;-69
2021/07/19 05:52:21;;;;;;;12.07;5.67;;;;;;;15.84;71.55;101236.28;5077572;28;20190;-70
2021/07/19 05:54:47;;;;;;;11.60;6.10;;;;;;;15.78;71.63;101242.09;5074985;28;20224;-70
2021/07/19 05:57:13;;;;;;;11.57;5.53;;;;;;;15.97;71.54;101238.13;5076324;28;20179;-69
2021/07/19 05:59:38;;;;;;;10.93;6.10;;;;;;;16.00;70.46;101248.72;5076951;28;20202;-69
2021/07/19 06:02:03;;;;;;;14.20;6.27;;;;;;;15.97;70.53;101241.69;5093288;28;20171;-69
2021/07/19 06:04:29;;;;;;;10.93;6.10;;;;;;;16.15;69.81;101242.25;5092549;28;20175;-69
2021/07/19 06:06:54;;;;;;;9.53;6.07;;;;;;;16.06;69.63;101243.75;5076609;28;20178;-69
2021/07/19 06:09:19;;;;;;;14.20;6.47;;;;;;;16.05;69.23;101247.41;5076417;28;20203;-70
2021/07/19 06:11:44;;;;;;;15.73;6.93;;;;;;;16.16;68.75;101254.75;5093024;28;20704;-70
2021/07/19 06:14:10;;;;;;;11.87;6.53;;;;;;;16.26;69.24;101258.50;5076376;28;20627;-68
2021/07/19 06:16:35;;;;;;;9.47;5.37;;;;;;;16.29;68.82;101255.59;5075518;28;20185;-68
2021/07/19 06:19:02;;;;;;;15.30;5.73;;;;;;;16.28;68.08;101261.94;5076001;28;20254;-69
2021/07/19 06:21:27;;;;;;;14.40;6.27;;;;;;;16.26;69.38;101258.50;5091343;28;20364;-69
2021/07/19 06:23:52;;;;;;;10.60;5.83;;;;;;;16.36;69.08;101262.31;5076581;28;20183;-70
2021/07/19 06:26:18;;;;;;;12.53;6.13;;;;;;;16.26;69.02;101263.91;5076284;28;20178;-69
2021/07/19 06:28:43;;;;;;;9.80;6.60;;;;;;;16.34;69.29;101258.81;5091874;28;20268;-68
2021/07/19 06:31:08;;;;;;;13.47;6.23;;;;;;;16.50;68.03;101253.25;5075243;28;20210;-69
2021/07/19 06:33:34;;;;;;;10.30;5.20;;;;;;;16.55;67.66;101254.63;5075545;28;20201;-68
2021/07/19 06:35:59;;;;;;;11.17;5.10;;;;;;;16.55;67.44;101257.31;5091654;28;20174;-69
2021/07/19 06:38:24;;;;;;;13.37;5.70;;;;;;;16.74;67.57;101262.31;5075240;28;20175;-69
2021/07/19 06:40:50;;;;;;;11.77;5.67;;;;;;;16.83;67.67;101255.38;5076221;28;20720;-69
2021/07/19 06:43:15;;;;;;;11.80;5.50;;;;;;;16.94;66.58;101262.69;5095220;28;20167;-69
2021/07/19 06:45:43;;;;;;;13.83;5.63;;;;;;;16.98;66.11;101256.94;5077246;28;20175;-69
2021/07/19 06:48:08;;;;;;;9.23;5.67;;;;;;;17.02;65.87;101254.91;5076075;28;20171;-69
2021/07/19 06:50:34;;;;;;;9.13;5.10;;;;;;;17.11;66.11;101257.81;5075037;28;20262;-69
2021/07/19 06:52:59;;;;;;;15.37;6.50;;;;;;;17.28;65.39;101258.38;5077130;28;20175;-69
2021/07/19 06:55:28;;;;;;;10.00;5.47;;;;;;;17.36;64.96;101258.66;5075611;28;20175;-69
2021/07/19 06:57:53;;;;;;;7.63;4.70;;;;;;;17.11;64.90;101255.09;5075549;28;20183;-69
2021/07/19 07:00:19;;;;;;;10.97;4.90;;;;;;;17.48;63.51;101252.38;5076975;28;20210;-69
2021/07/19 07:02:44;;;;;;;9.43;4.37;;;;;;;17.52;62.61;101258.41;5075443;28;20195;-70
2021/07/19 07:05:12;;;;;;;9.43;4.53;;;;;;;17.76;61.67;101260.09;5076181;28;20198;-69
2021/07/19 07:07:38;;;;;;;13.77;4.73;;;;;;;17.73;61.41;101256.78;5075492;28;20179;-70
2021/07/19 07:10:05;;;;;;;14.43;4.73;;;;;;;17.83;61.58;101255.09;5075467;28;20622;-68
2021/07/19 07:12:30;;;;;;;11.33;4.40;;;;;;;17.92;61.65;101256.25;5075665;28;20591;-70
2021/07/19 07:14:56;;;;;;;10.03;4.30;;;;;;;17.98;61.37;101262.03;5077041;28;20242;-69
2021/07/19 07:17:21;;;;;;;8.83;4.20;;;;;;;17.67;60.27;101258.13;5075707;28;20536;-68
2021/07/19 07:19:46;;;;;;;6.37;3.90;;;;;;;17.92;60.48;101253.56;5075896;28;20241;-70
2021/07/19 07:22:12;;;;;;;7.27;3.80;;;;;;;17.32;62.64;101246.38;5076300;28;20179;-69
2021/07/19 07:24:43;;;;;;;9.67;3.90;;;;;;;17.97;60.51;101263.03;5090851;28;20170;-69
2021/07/19 07:27:12;;;;;;;11.83;3.80;;;;;;;18.06;58.77;101264.13;5074562;28;20562;-69
2021/07/19 07:29:37;;;;;;;8.17;3.60;;;;;;;18.09;59.94;101253.97;5090610;28;20610;-70
2021/07/19 07:32:04;;;;;;;8.00;3.43;;;;;;;18.00;60.16;101248.41;5074903;28;20179;-68
2021/07/19 07:34:29;;;;;;;9.33;3.60;;;;;;;18.05;59.77;101249.78;5057086;28;20258;-70
2021/07/19 07:36:54;;;;;;;9.90;4.10;;;;;;;18.21;59.58;101245.88;5074621;28;20538;-69
2021/07/19 07:39:20;;;;;;;9.37;3.57;;;;;;;18.29;59.55;101244.31;5075710;28;20171;-70
2021/07/19 07:41:45;;;;;;;7.27;3.43;;;;;;;18.24;59.86;101251.06;5076061;28;20617;-69
2021/07/19 07:44:10;;;;;;;10.47;3.30;;;;;;;18.07;58.54;101238.84;5074032;28;20171;-69
2021/07/19 07:46:36;;;;;;;8.67;3.70;;;;;;;17.94;59.20;101238.09;5074660;28;20582;-68
2021/07/19 07:49:01;;;;;;;8.70;3.67;;;;;;;18.37;57.46;101236.44;5090579;28;20206;-71
2021/07/19 07:51:26;;;;;;;6.00;3.30;;;;;;;17.92;56.89;101240.91;5089397;28;20278;-69
2021/07/19 07:53:52;;;;;;;7.10;2.97;;;;;;;18.15;56.25;101231.00;5072190;28;20202;-69
2021/07/19 07:56:17;;;;;;;5.40;2.80;;;;;;;17.90;56.92;101234.78;5072104;28;20179;-69
2021/07/19 07:58:42;;;;;;;5.50;3.10;;;;;;;18.50;55.80;101230.91;5073359;28;20180;-69
2021/07/19 08:01:08;;;;;;;6.23;2.90;;;;;;;18.94;54.16;101227.34;5072000;28;20202;-69
2021/07/19 08:03:33;;;;;;;6.30;3.00;;;;;;;18.82;53.72;101220.25;5073592;28;20233;-69
2021/07/19 08:05:58;;;;;;;5.30;2.87;;;;;;;17.87;55.97;101229.63;5073975;28;20224;-68
2021/07/19 08:08:23;;;;;;;6.37;2.73;;;;;;;18.07;55.65;101226.22;5071945;28;20167;-68
2021/07/19 08:10:49;;;;;;;6.47;3.20;;;;;;;18.63;54.73;101222.75;5089695;28;20252;-68
2021/07/19 08:13:14;;;;;;;9.53;3.97;;;;;;;18.76;55.67;101239.69;5089070;28;20175;-68
2021/07/19 08:15:40;;;;;;;7.50;3.50;;;;;;;18.68;53.90;101226.78;5088981;28;20175;-68
2021/07/19 08:18:05;;;;;;;11.60;4.40;;;;;;;18.70;55.18;101232.06;5072376;28;20690;-69
2021/07/19 08:20:31;;;;;;;9.10;3.50;;;;;;;18.75;56.54;101235.25;5073511;28;20623;-70
2021/07/19 08:22:56;;;;;;;7.33;3.60;;;;;;;18.53;55.70;101240.63;5072144;28;20236;-69
2021/07/19 08:25:21;;;;;;;8.73;3.67;;;;;;;18.53;55.09;101235.22;5073094;28;20167;-69
2021/07/19 08:27:48;;;;;;;7.87;3.80;;;;;;;18.32;55.36;101233.25;5072966;28;20343;-70
2021/07/19 08:30:14;;;;;;;10.80;3.50;;;;;;;18.33;54.68;101234.97;5072104;28;20202;-68
2021/07/19 08:32:39;;;;;;;6.13;3.37;;;;;;;18.57;54.60;101224.03;5073003;28;20197;-69
2021/07/19 08:35:09;;;;;;;5.30;3.17;;;;;;;18.36;56.47;101228.47;5072042;28;20198;-69
2021/07/19 08:37:39;;;;;;;9.77;3.70;;;;;;;18.56;54.80;101232.25;5072399;28;20151;-69
2021/07/19 08:40:06;;;;;;;6.23;3.67;;;;;;;18.57;54.10;101223.19;5088936;28;20685;-70
2021/07/19 08:42:33;;;;;;;5.53;3.40;;;;;;;18.76;53.59;101209.09;5072265;28;20188;-69
2021/07/19 08:44:59;;;;;;;3.90;2.93;;;;;;;19.18;52.66;101220.94;5074156;28;20584;-68
2021/07/19 08:47:24;;;;;;;8.17;3.70;;;;;;;19.71;52.66;101215.63;5073307;28;20170;-68
2021/07/19 08:49:49;;;;;;;6.00;3.17;;;;;;;19.25;53.22;101211.31;5071709;28;20202;-68
2021/07/19 08:52:16;;;;;;;7.47;2.93;;;;;;;18.99;52.24;101208.94;5089267;28;20179;-69
2021/07/19 08:54:47;;;;;;;7.43;3.00;;;;;;;19.45;50.95;101205.09;5071802;28;20175;-69
2021/07/19 08:57:13;;;;;;;5.97;2.93;;;;;;;18.56;52.85;101219.59;5088429;28;20640;-69
2021/07/19 08:59:40;;;;;;;7.07;3.03;;;;;;;19.23;51.43;101207.88;5071774;28;20202;-69
2021/07/19 09:02:05;;;;;;;5.37;3.10;;;;;;;19.21;50.88;101202.59;5071944;28;20170;-69
2021/07/19 09:04:31;;;;;;;6.97;3.30;;;;;;;19.85;48.49;101209.88;5072780;28;20615;-69
2021/07/19 09:06:56;;;;;;;5.47;2.50;;;;;;;19.39;49.73;101208.31;5072437;28;20209;-69
2021/07/19 09:09:28;;;;;;;5.03;2.53;;;;;;;19.85;47.70;101205.31;5072819;28;20690;-69
2021/07/19 09:11:53;;;;;;;5.20;2.80;;;;;;;20.45;46.40;101211.84;5073180;28;20210;-69
2021/07/19 09:14:19;;;;;;;4.57;2.40;;;;;;;20.35;46.06;101210.88;5072713;28;20616;-69
2021/07/19 09:16:46;;;;;;;4.43;2.30;;;;;;;20.68;44.99;101208.91;5072637;28;20171;-69
2021/07/19 09:19:22;;;;;;;4.10;2.40;;;;;;;20.70;45.30;101209.63;5072559;28;20220;-69
2021/07/19 09:21:50;;;;;;;4.97;2.50;;;;;;;19.87;46.60;101207.88;5071410;28;20181;-69
2021/07/19 09:24:22;;;;;;;3.90;2.20;;;;;;;20.57;45.34;101208.03;5072409;28;20182;-68
2021/07/19 09:26:49;;;;;;;5.43;1.90;;;;;;;20.40;45.90;101210.50;5054490;28;20171;-68
2021/07/19 09:29:17;;;;;;;4.83;2.70;;;;;;;20.71;45.98;101204.06;5072691;28;20308;-69
2021/07/19 09:31:44;;;;;;;11.17;2.43;;;;;;;19.79;47.36;101207.69;5071241;28;20190;-69
2021/07/19 09:34:21;;;;;;;6.20;2.63;;;;;;;19.90;46.20;101208.47;5088472;28;20181;-68
2021/07/19 09:37:03;;;;;;;7.37;3.33;;;;;;;19.96;44.91;101202.50;5088567;28;20700;-68
2021/07/19 09:39:56;;;;;;;3.43;1.80;;;;;;;20.75;43.69;101204.66;5072362;28;20744;-69
2021/07/19 09:42:24;;;;;;;3.23;1.80;;;;;;;20.51;44.04;101199.59;5087088;28;20200;-68
2021/07/19 09:44:57;;;;;;;5.07;2.10;;;;;;;21.39;43.78;101199.69;5071592;28;20546;-69
2021/07/19 09:47:37;;;;;;;6.33;2.23;;;;;;;20.55;44.77;101198.31;5071231;28;20745;-68
2021/07/19 09:50:18;;;;;;;4.80;2.07;;;;;;;21.34;42.24;101198.38;5073502;28;20259;-68
2021/07/19 09:52:44;;;;;;;3.40;2.00;;;;;;;20.92;43.98;101185.88;5076159;28;20289;-68
2021/07/19 09:55:13;;;;;;;3.30;1.90;;;;;;;21.92;41.61;101193.78;5091812;28;20543;-68
2021/07/19 09:57:38;;;;;;;3.93;1.90;;;;;;;22.51;39.98;101192.63;5074567;28;20194;-69
2021/07/19 10:00:04;;;;;;;5.33;2.30;;;;;;;22.35;39.74;101192.44;5118061;22;20779;-69
2021/07/19 10:02:35;;;;;;;5.53;2.13;;;;;;;22.02;39.99;101174.75;5094828;28;20190;-69
2021/07/19 10:05:01;;;;;;;5.53;1.90;;;;;;;21.70;42.29;101175.94;5094809;28;20174;-69
2021/07/19 10:07:26;;;;;;;3.67;2.40;;;;;;;20.69;43.47;101178.94;5095318;28;20179;-70
2021/07/19 10:09:56;;;;;;;3.67;2.10;;;;;;;20.84;43.37;101182.13;5096111;28;20247;-69
2021/07/19 10:12:22;;;;;;;3.83;2.00;;;;;;;21.20;42.09;101184.22;5077818;28;20534;-68
2021/07/19 10:14:48;;;;;;;3.10;1.83;;;;;;;21.15;43.48;101186.47;5077367;28;20186;-68
2021/07/19 10:17:14;;;;;;;3.60;2.03;;;;;;;20.09;47.14;101187.94;5095797;28;20257;-66
2021/07/19 10:19:41;;;;;;;5.53;2.27;;;;;;;20.36;46.04;101182.78;5094352;28;20170;-68
2021/07/19 10:22:07;;;;;;;6.60;2.20;;;;;;;19.91;45.92;101176.81;5094862;28;20615;-69
2021/07/19 10:24:34;;;;;;;3.57;1.70;;;;;;;19.91;45.77;101185.81;5077818;28;20182;-69
2021/07/19 10:26:59;;;;;;;7.23;2.30;;;;;;;19.73;46.31;101189.25;5096260;28;20376;-68
2021/07/19 10:29:25;;;;;;;4.87;2.40;;;;;;;20.10;44.98;101185.09;5094156;28;20205;-69
2021/07/19 10:31:50;;;;;;;4.77;1.97;;;;;;;19.95;46.26;101184.53;5095324;28;20223;-69
2021/07/19 10:34:18;;;;;;;3.50;2.00;;;;;;;20.57;46.01;101186.34;5095490;28;20178;-69
2021/07/19 10:36:50;;;;;;;8.47;2.50;;;;;;;20.96;45.39;101186.44;5093985;28;20178;-69
2021/07/19 10:39:22;;;;;;;5.70;2.30;;;;;;;20.49;46.29;101188.00;5094289;28;20543;-69
2021/07/19 10:42:03;;;;;;;3.40;1.90;;;;;;;21.28;43.87;101194.38;5094020;28;20247;-69
2021/07/19 10:44:33;;;;;;;7.20;2.07;;;;;;;21.56;42.16;101191.81;5093847;28;20181;-69
2021/07/19 10:47:09;;;;;;;4.00;1.93;;;;;;;22.00;40.91;101199.34;5094022;28;20161;-69
2021/07/19 10:49:40;;;;;;;3.17;1.80;;;;;;;22.72;39.44;101192.41;5093407;28;20673;-68
2021/07/19 10:52:09;;;;;;;5.83;1.60;;;;;;;22.69;39.10;101196.28;5095174;28;20196;-69
2021/07/19 10:54:44;;;;;;;3.80;1.90;;;;;;;23.04;38.65;101202.84;5094721;28;20704;-68
2021/07/19 10:57:10;;;;;;;4.77;2.20;;;;;;;22.85;40.19;101197.53;5094953;28;20283;-68
2021/07/19 10:59:38;;;;;;;7.20;2.00;;;;;;;23.12;39.28;101189.34;5094859;28;20174;-68
2021/07/19 11:02:04;;;;;;;5.47;1.80;;;;;;;21.62;41.07;101189.41;5093721;28;20587;-68
2021/07/19 11:04:29;;;;;;;6.07;1.90;;;;;;;21.50;42.45;101201.38;5076674;28;20269;-68
2021/07/19 11:06:57;;;;;;;4.93;2.10;;;;;;;21.09;42.22;101189.75;5093366;28;20532;-68
2021/07/19 11:09:33;;;;;;;5.13;2.10;;;;;;;21.51;41.60;101198.53;5094535;28;20170;-68
2021/07/19 11:12:05;;;;;;;5.77;1.90;;;;;;;21.97;41.56;101205.09;5095021;28;20158;-69
2021/07/19 11:14:40;;;;;;;3.93;1.80;;;;;;;21.68;42.26;101187.97;5093182;28;20283;-69
2021/07/19 11:17:09;;;;;;;3.63;2.00;;;;;;;21.36;45.87;101194.53;5094416;28;20173;-68
2021/07/19 11:19:39;;;;;;;4.50;2.37;;;;;;;22.74;44.47;101202.13;5093007;28;20171;-69